createdAt,value
2022-09-27T00:01:14.452Z,96.83
2022-09-27T00:03:42.670Z,96.92
2022-09-27T00:06:14.740Z,97.30
2022-09-27T00:08:43.595Z,97.38
2022-09-27T00:11:17.642Z,96.43
2022-09-27T00:13:45.868Z,96.68
2022-09-27T00:16:15.310Z,97.10
2022-09-27T00:18:43.665Z,97.38
2022-09-27T00:21:13.829Z,97.36
2022-09-27T00:23:42.270Z,97.00
2022-09-27T00:26:14.351Z,97.10
2022-09-27T00:28:42.615Z,97.04
2022-09-27T00:31:23.612Z,97.38
2022-09-27T00:33:53.266Z,97.34
2022-09-27T00:36:22.845Z,97.57
2022-09-27T00:38:51.256Z,97.40
2022-09-27T00:41:21.298Z,97.29
2022-09-27T00:43:52.146Z,97.18
2022-09-27T00:46:26.564Z,97.15
2022-09-27T00:49:06.027Z,96.76
2022-09-27T00:51:37.513Z,97.81
2022-09-27T00:54:08.070Z,98.74
2022-09-27T00:56:39.980Z,98.60
2022-09-27T00:59:13.809Z,97.45
2022-09-27T01:01:43.369Z,97.25
2022-09-27T01:04:13.848Z,98.00
2022-09-27T01:06:42.288Z,98.29
2022-09-27T01:09:12.258Z,98.53
2022-09-27T01:11:44.690Z,98.48
2022-09-27T01:14:36.465Z,97.51
2022-09-27T01:17:19.418Z,97.32
2022-09-27T01:20:37.969Z,98.02
2022-09-27T01:23:28.824Z,99.11
2022-09-27T01:26:12.202Z,98.65
2022-09-27T01:28:50.821Z,98.84
2022-09-27T01:31:25.743Z,97.89
2022-09-27T01:34:04.964Z,99.05
2022-09-27T01:36:44.198Z,98.62
2022-09-27T01:39:23.426Z,98.25
2022-09-27T01:42:03.568Z,97.86
2022-09-27T01:44:36.644Z,98.42
2022-09-27T01:47:13.471Z,97.81
2022-09-27T01:49:48.305Z,98.07
2022-09-27T01:52:20.495Z,98.42
2022-09-27T01:54:54.982Z,98.29
2022-09-27T01:57:27.688Z,98.82
2022-09-27T02:00:01.478Z,98.80
2022-09-27T02:02:35.072Z,99.21
2022-09-27T02:05:07.059Z,99.07
2022-09-27T02:07:41.367Z,98.97
2022-09-27T02:10:14.685Z,98.46
2022-09-27T02:12:52.822Z,98.86
2022-09-27T02:15:21.530Z,98.77
2022-09-27T02:17:58.233Z,98.64
2022-09-27T02:20:32.243Z,98.74
2022-09-27T02:23:11.845Z,99.40
2022-09-27T02:25:45.563Z,99.55
2022-09-27T02:28:23.383Z,99.74
2022-09-27T02:30:51.688Z,99.87
2022-09-27T02:33:24.227Z,99.60
2022-09-27T02:35:52.337Z,99.68
2022-09-27T02:38:21.017Z,99.76
2022-09-27T02:40:49.742Z,99.42
2022-09-27T02:43:20.317Z,99.44
2022-09-27T02:46:02.450Z,100.00
2022-09-27T02:48:41.158Z,99.38
2022-09-27T02:51:31.411Z,98.42
2022-09-27T02:54:08.592Z,99.59
2022-09-27T02:56:48.842Z,99.76
2022-09-27T02:59:33.255Z,99.43
2022-09-27T03:02:12.644Z,99.57
2022-09-27T03:04:49.106Z,100.00
2022-09-27T03:07:17.892Z,99.91
2022-09-27T03:09:48.158Z,99.74
2022-09-27T03:12:20.847Z,99.90
2022-09-27T03:14:49.113Z,99.43
2022-09-27T03:17:17.160Z,100.00
2022-09-27T03:19:46.491Z,100.00
2022-09-27T03:22:14.417Z,99.90
2022-09-27T03:24:42.591Z,99.37
2022-09-27T03:27:11.152Z,99.76
2022-09-27T03:29:39.024Z,100.00
2022-09-27T03:32:07.038Z,99.85
2022-09-27T03:34:34.988Z,99.59
2022-09-27T03:37:04.237Z,99.52
2022-09-27T03:39:33.288Z,99.47
2022-09-27T03:42:01.402Z,99.52
2022-09-27T03:44:29.328Z,98.86
2022-09-27T03:46:58.751Z,99.19
2022-09-27T03:49:26.978Z,98.89
2022-09-27T03:51:54.950Z,99.55
2022-09-27T03:54:25.150Z,100.00
2022-09-27T03:56:53.298Z,99.88
2022-09-27T03:59:21.219Z,99.44
2022-09-27T04:01:49.279Z,98.71
2022-09-27T04:04:17.474Z,99.04
2022-09-27T04:06:45.381Z,99.21
2022-09-27T04:09:13.327Z,99.28
2022-09-27T04:11:42.747Z,99.31
2022-09-27T04:14:13.059Z,99.07
2022-09-27T04:16:41.439Z,98.64
2022-09-27T04:19:10.894Z,99.37
2022-09-27T04:21:38.901Z,98.90
2022-09-27T04:24:07.113Z,100.00
2022-09-27T04:26:35.331Z,100.00
2022-09-27T04:29:04.761Z,100.00
2022-09-27T04:31:33.141Z,100.00
2022-09-27T04:34:01.110Z,100.00
2022-09-27T04:36:28.114Z,99.79
2022-09-27T04:38:56.737Z,99.18
2022-09-27T04:41:25.735Z,99.40
2022-09-27T04:43:58.892Z,99.39
2022-09-27T04:46:31.803Z,99.70
2022-09-27T04:49:00.604Z,99.92
2022-09-27T04:51:29.153Z,99.72
2022-09-27T04:53:57.732Z,99.22
2022-09-27T04:56:26.224Z,98.75
2022-09-27T04:58:54.162Z,99.10
2022-09-27T05:01:22.974Z,99.01
2022-09-27T05:03:52.285Z,98.87
2022-09-27T05:06:20.672Z,99.04
2022-09-27T05:08:48.678Z,99.12
2022-09-27T05:11:16.645Z,99.15
2022-09-27T05:13:44.604Z,99.68
2022-09-27T05:16:12.702Z,99.47
2022-09-27T05:18:40.652Z,99.14
2022-09-27T05:21:10.009Z,99.56
2022-09-27T05:23:38.181Z,99.86
2022-09-27T05:26:06.552Z,98.97
2022-09-27T05:28:35.192Z,98.27
2022-09-27T05:31:03.824Z,98.35
2022-09-27T05:33:34.440Z,97.79
2022-09-27T05:36:04.578Z,98.64
2022-09-27T05:38:35.226Z,98.33
2022-09-27T05:41:03.427Z,98.42
2022-09-27T05:43:32.073Z,97.94
2022-09-27T05:46:00.919Z,96.93
2022-09-27T05:48:30.333Z,95.92
2022-09-27T05:50:58.598Z,95.86
2022-09-27T05:53:26.673Z,95.24
2022-09-27T05:55:56.043Z,96.13
2022-09-27T05:58:24.056Z,95.54
2022-09-27T06:00:51.948Z,95.89
2022-09-27T06:03:20.922Z,95.57
2022-09-27T06:05:51.413Z,94.81
2022-09-27T06:08:20.778Z,96.08
2022-09-27T06:10:48.952Z,96.08
2022-09-27T06:13:18.637Z,95.97
2022-09-27T06:15:47.563Z,95.44
2022-09-27T06:18:18.305Z,95.48
2022-09-27T06:20:46.847Z,96.46
2022-09-27T06:23:17.500Z,96.32
2022-09-27T06:25:46.793Z,95.42
2022-09-27T06:28:15.209Z,95.49
2022-09-27T06:30:45.696Z,94.00
2022-09-27T06:33:16.107Z,95.00
2022-09-27T06:35:45.459Z,95.38
2022-09-27T06:38:15.757Z,96.15
2022-09-27T06:40:45.632Z,96.04
2022-09-27T06:43:15.562Z,95.70
2022-09-27T06:45:45.569Z,95.78
2022-09-27T06:48:15.808Z,94.58
2022-09-27T06:50:45.313Z,96.61
2022-09-27T06:53:14.715Z,96.85
2022-09-27T06:55:43.127Z,96.88
2022-09-27T06:58:30.829Z,96.38
2022-09-27T07:01:00.278Z,97.03
2022-09-27T07:03:35.407Z,96.08
2022-09-27T07:06:07.877Z,96.06
2022-09-27T07:08:36.077Z,96.26
2022-09-27T07:11:06.034Z,95.44
2022-09-27T07:13:37.211Z,96.28
2022-09-27T07:16:06.939Z,95.93
2022-09-27T07:18:34.953Z,95.87
2022-09-27T07:21:02.947Z,96.23
2022-09-27T07:23:30.818Z,95.45
2022-09-27T07:26:04.712Z,96.24
2022-09-27T07:28:32.873Z,95.83
2022-09-27T07:31:02.372Z,95.93
2022-09-27T07:33:32.257Z,94.50
2022-09-27T07:36:00.208Z,94.30
2022-09-27T07:38:28.236Z,93.13
2022-09-27T07:40:56.454Z,91.27
2022-09-27T07:43:24.674Z,91.58
2022-09-27T07:45:52.611Z,89.54
2022-09-27T07:48:20.743Z,89.51
2022-09-27T07:50:50.043Z,90.04
2022-09-27T07:53:19.828Z,87.56
2022-09-27T07:55:53.247Z,87.35
2022-09-27T07:58:24.903Z,87.17
2022-09-27T08:00:54.778Z,87.53
2022-09-27T08:03:22.901Z,87.48
2022-09-27T08:05:52.226Z,87.44
2022-09-27T08:08:20.193Z,87.19
2022-09-27T08:10:48.098Z,86.95
2022-09-27T08:13:20.285Z,86.94
2022-09-27T08:15:48.808Z,87.93
2022-09-27T08:18:17.687Z,87.11
2022-09-27T08:20:46.051Z,87.36
2022-09-27T08:23:15.417Z,87.63
2022-09-27T08:25:43.566Z,87.97
2022-09-27T08:28:11.708Z,88.92
2022-09-27T08:30:39.743Z,87.98
2022-09-27T08:33:08.272Z,86.15
2022-09-27T08:35:36.363Z,84.64
2022-09-27T08:38:06.281Z,85.79
2022-09-27T08:40:50.340Z,85.07
2022-09-27T08:43:28.576Z,86.26
2022-09-27T08:46:08.964Z,85.71
2022-09-27T08:48:39.447Z,85.38
2022-09-27T08:51:12.215Z,84.43
2022-09-27T08:53:44.622Z,84.69
2022-09-27T08:56:15.848Z,85.62
2022-09-27T08:58:50.102Z,85.71
2022-09-27T09:01:20.469Z,86.53
2022-09-27T09:03:51.896Z,86.88
2022-09-27T09:06:27.211Z,87.20
2022-09-27T09:09:09.646Z,86.09
2022-09-27T09:12:08.636Z,87.08
2022-09-27T09:15:03.131Z,85.87
2022-09-27T09:17:49.489Z,88.07
2022-09-27T09:20:30.244Z,88.44
2022-09-27T09:23:22.913Z,86.45
2022-09-27T09:25:59.768Z,87.25
2022-09-27T09:28:42.486Z,87.18
2022-09-27T09:31:16.713Z,87.95
2022-09-27T09:33:52.776Z,87.05
2022-09-27T09:36:31.185Z,86.73
2022-09-27T09:39:04.331Z,87.14
2022-09-27T09:41:40.118Z,87.25
2022-09-27T09:44:18.938Z,88.42
2022-09-27T09:46:51.520Z,89.30
2022-09-27T09:49:25.361Z,88.99
2022-09-27T09:51:58.245Z,90.06
2022-09-27T09:54:31.658Z,90.00
2022-09-27T09:57:04.953Z,89.82
2022-09-27T09:59:41.524Z,89.48
2022-09-27T10:02:21.961Z,88.79
2022-09-27T10:04:50.203Z,89.28
2022-09-27T10:07:22.062Z,89.86
2022-09-27T10:09:50.473Z,89.57
2022-09-27T10:12:18.624Z,89.41
2022-09-27T10:14:50.524Z,90.14
2022-09-27T10:17:22.034Z,89.67
2022-09-27T10:19:52.833Z,89.68
2022-09-27T10:22:33.898Z,90.15
2022-09-27T10:25:03.969Z,89.91
2022-09-27T10:27:43.544Z,88.17
2022-09-27T10:30:26.770Z,88.37
2022-09-27T10:32:58.693Z,89.16
2022-09-27T10:35:39.286Z,88.69
2022-09-27T10:38:24.929Z,88.42
2022-09-27T10:40:55.431Z,88.71
2022-09-27T10:43:32.660Z,87.88
2022-09-27T10:46:14.214Z,88.10
2022-09-27T10:48:43.030Z,87.87
2022-09-27T10:51:25.457Z,87.16
2022-09-27T10:53:54.028Z,86.61
2022-09-27T10:56:25.100Z,87.17
2022-09-27T10:58:53.784Z,86.29
2022-09-27T11:01:23.612Z,84.50
2022-09-27T11:03:54.906Z,84.46
2022-09-27T11:06:38.059Z,80.70
2022-09-27T11:09:19.974Z,82.89
2022-09-27T11:11:47.870Z,81.83
2022-09-27T11:14:21.476Z,81.72
2022-09-27T11:17:22.127Z,81.10
2022-09-27T11:20:14.461Z,82.61
2022-09-27T11:23:23.367Z,80.79
2022-09-27T11:26:07.794Z,82.24
2022-09-27T11:28:51.226Z,81.18
2022-09-27T11:31:29.852Z,82.49
2022-09-27T11:34:13.891Z,79.65
2022-09-27T11:36:57.255Z,80.19
2022-09-27T11:39:33.027Z,82.55
2022-09-27T11:42:25.722Z,81.60
2022-09-27T11:45:41.216Z,79.65
2022-09-27T11:48:10.621Z,78.96
2022-09-27T11:51:03.571Z,79.36
2022-09-27T11:53:44.830Z,78.39
2022-09-27T11:56:24.527Z,80.37
2022-09-27T11:59:03.828Z,80.02
2022-09-27T12:01:44.085Z,80.82
2022-09-27T12:04:38.528Z,78.92
2022-09-27T12:07:17.581Z,78.91
2022-09-27T12:09:49.825Z,77.21
2022-09-27T12:12:21.589Z,78.81
2022-09-27T12:14:53.670Z,79.02
2022-09-27T12:17:25.112Z,78.85
2022-09-27T12:19:56.665Z,78.04
2022-09-27T12:22:57.067Z,77.54
2022-09-27T12:25:21.236Z,75.85
2022-09-27T12:27:52.592Z,77.56
2022-09-27T12:30:20.612Z,76.87
2022-09-27T12:32:57.872Z,75.02
2022-09-27T12:35:30.092Z,75.93
2022-09-27T12:38:04.292Z,76.26
2022-09-27T12:40:36.110Z,76.35
2022-09-27T12:43:09.127Z,76.48
2022-09-27T12:45:46.307Z,75.84
2022-09-27T12:48:21.991Z,75.39
2022-09-27T12:50:53.703Z,75.66
2022-09-27T12:53:26.974Z,76.71
2022-09-27T12:56:11.860Z,74.72
2022-09-27T12:58:59.541Z,74.62
2022-09-27T13:01:44.286Z,74.81
2022-09-27T13:04:39.314Z,73.16
2022-09-27T13:07:27.523Z,75.11
2022-09-27T13:10:36.584Z,74.21
2022-09-27T13:13:06.478Z,76.22
2022-09-27T13:15:39.734Z,78.23
2022-09-27T13:18:30.687Z,78.33
2022-09-27T13:20:58.705Z,78.74
2022-09-27T13:24:00.759Z,78.04
2022-09-27T13:27:01.415Z,77.60
2022-09-27T13:29:33.327Z,76.16
2022-09-27T13:32:23.358Z,75.89
2022-09-27T13:34:54.034Z,77.35
2022-09-27T13:37:40.209Z,76.83
2022-09-27T13:40:25.947Z,78.29
2022-09-27T13:43:10.238Z,78.14
2022-09-27T13:45:43.185Z,78.46
2022-09-27T13:48:17.233Z,77.89
2022-09-27T13:50:51.126Z,77.02
2022-09-27T13:53:26.914Z,76.66
2022-09-27T13:55:55.577Z,76.75
2022-09-27T13:58:55.898Z,75.95
2022-09-27T14:01:29.975Z,76.61
2022-09-27T14:04:03.511Z,75.48
2022-09-27T14:06:35.505Z,75.26
2022-09-27T14:09:06.659Z,75.74
2022-09-27T14:11:40.229Z,75.30
2022-09-27T14:14:18.727Z,73.92
2022-09-27T14:16:47.819Z,75.69
2022-09-27T14:19:19.940Z,77.29
2022-09-27T14:21:49.604Z,78.37
2022-09-27T14:24:26.914Z,78.87
2022-09-27T14:27:17.499Z,80.04
2022-09-27T14:29:49.593Z,79.15
2022-09-27T14:32:19.428Z,80.14
2022-09-27T14:34:47.875Z,79.27
2022-09-27T14:37:26.159Z,79.54
2022-09-27T14:40:06.144Z,80.56
2022-09-27T14:42:37.651Z,79.99
2022-09-27T14:45:20.277Z,79.25
2022-09-27T14:47:49.481Z,80.95
2022-09-27T14:50:21.684Z,80.17
2022-09-27T14:52:52.522Z,80.09
2022-09-27T14:55:22.522Z,81.15
2022-09-27T14:57:53.881Z,81.50
2022-09-27T15:00:26.229Z,81.87
2022-09-27T15:02:56.237Z,82.83
2022-09-27T15:05:27.424Z,82.88
2022-09-27T15:07:58.337Z,82.19
2022-09-27T15:10:28.839Z,82.81
2022-09-27T15:13:00.104Z,83.06
2022-09-27T15:15:32.360Z,83.46
2022-09-27T15:18:00.995Z,83.86
2022-09-27T15:20:34.938Z,83.58
2022-09-27T15:23:04.810Z,83.95
2022-09-27T15:25:35.862Z,82.19
2022-09-27T15:28:07.588Z,82.70
2022-09-27T15:30:39.394Z,81.94
2022-09-27T15:33:19.629Z,81.53
2022-09-27T15:35:51.416Z,81.87
2022-09-27T15:38:29.050Z,81.92
2022-09-27T15:41:03.773Z,82.08
2022-09-27T15:43:35.123Z,82.18
2022-09-27T15:46:07.028Z,81.11
2022-09-27T15:48:37.860Z,81.53
2022-09-27T15:51:40.830Z,80.59
2022-09-27T15:54:08.911Z,79.85
2022-09-27T15:56:37.447Z,80.47
2022-09-27T15:59:05.704Z,81.07
2022-09-27T16:01:35.179Z,80.88
2022-09-27T16:04:03.241Z,82.06
2022-09-27T16:06:31.192Z,80.80
2022-09-27T16:08:59.435Z,81.20
2022-09-27T16:11:27.311Z,81.03
2022-09-27T16:13:55.198Z,82.03
2022-09-27T16:16:24.056Z,81.81
2022-09-27T16:18:53.548Z,80.72
2022-09-27T16:21:21.432Z,80.06
2022-09-27T16:23:49.447Z,80.57
2022-09-27T16:26:19.504Z,79.92
2022-09-27T16:28:49.040Z,79.55
2022-09-27T16:31:18.431Z,80.12
2022-09-27T16:33:49.668Z,80.67
2022-09-27T16:36:20.614Z,81.37
2022-09-27T16:38:52.994Z,81.73
2022-09-27T16:41:22.493Z,80.67
2022-09-27T16:43:50.513Z,81.99
2022-09-27T16:46:19.734Z,82.26
2022-09-27T16:48:48.834Z,81.68
2022-09-27T16:51:37.984Z,82.11
2022-09-27T16:54:07.411Z,82.06
2022-09-27T16:56:35.951Z,82.13
2022-09-27T16:59:06.705Z,81.89
2022-09-27T17:01:35.313Z,82.19
2022-09-27T17:04:04.243Z,81.98
2022-09-27T17:06:33.981Z,82.87
2022-09-27T17:09:04.455Z,82.36
2022-09-27T17:11:33.257Z,82.46
2022-09-27T17:14:01.353Z,82.89
2022-09-27T17:16:29.543Z,82.89
2022-09-27T17:18:57.701Z,83.29
2022-09-27T17:21:25.826Z,82.77
2022-09-27T17:23:55.215Z,83.07
2022-09-27T17:26:24.285Z,82.84
2022-09-27T17:28:55.080Z,82.61
2022-09-27T17:31:23.069Z,83.16
2022-09-27T17:33:57.431Z,83.25
2022-09-27T17:36:27.928Z,82.49
2022-09-27T17:38:58.725Z,81.75
2022-09-27T17:41:28.969Z,82.29
2022-09-27T17:43:58.915Z,82.02
2022-09-27T17:46:29.252Z,82.76
2022-09-27T17:49:15.349Z,83.11
2022-09-27T17:51:44.194Z,82.54
2022-09-27T17:54:13.865Z,81.80
2022-09-27T17:56:43.946Z,82.26
2022-09-27T17:59:15.906Z,82.51
2022-09-27T18:01:45.322Z,83.76
2022-09-27T18:04:15.276Z,83.19
2022-09-27T18:06:46.418Z,83.09
2022-09-27T18:09:17.965Z,82.32
2022-09-27T18:11:46.037Z,82.26
2022-09-27T18:14:14.574Z,82.80
2022-09-27T18:16:44.007Z,82.77
2022-09-27T18:19:13.489Z,83.39
2022-09-27T18:21:41.375Z,82.58
2022-09-27T18:24:10.926Z,82.93
2022-09-27T18:26:40.813Z,83.38
2022-09-27T18:29:12.042Z,84.00
2022-09-27T18:31:42.129Z,84.10
2022-09-27T18:34:13.056Z,84.50
2022-09-27T18:36:42.396Z,83.85
2022-09-27T18:39:13.971Z,84.36
2022-09-27T18:41:43.297Z,85.81
2022-09-27T18:44:13.581Z,85.23
2022-09-27T18:46:41.829Z,85.38
2022-09-27T18:49:12.374Z,84.83
2022-09-27T18:51:44.090Z,84.74
2022-09-27T18:54:16.162Z,83.75
2022-09-27T18:56:45.782Z,84.45
2022-09-27T18:59:14.059Z,84.24
2022-09-27T19:01:45.455Z,84.70
2022-09-27T19:04:16.925Z,84.65
2022-09-27T19:06:47.422Z,84.76
2022-09-27T19:09:15.333Z,84.90
2022-09-27T19:11:43.297Z,84.69
2022-09-27T19:14:16.960Z,85.06
2022-09-27T19:16:47.147Z,85.85
2022-09-27T19:19:17.073Z,85.56
2022-09-27T19:21:45.450Z,86.03
2022-09-27T19:24:16.266Z,86.10
2022-09-27T19:26:44.606Z,85.88
2022-09-27T19:29:14.813Z,86.37
2022-09-27T19:31:43.299Z,86.45
2022-09-27T19:34:11.984Z,86.19
2022-09-27T19:36:39.872Z,87.08
2022-09-27T19:39:08.037Z,86.99
2022-09-27T19:41:35.923Z,86.53
2022-09-27T19:44:03.929Z,85.94
2022-09-27T19:46:33.211Z,86.02
2022-09-27T19:49:01.709Z,86.43
2022-09-27T19:51:31.024Z,86.54
2022-09-27T19:53:58.924Z,86.70
2022-09-27T19:56:27.942Z,86.52
2022-09-27T19:58:55.807Z,86.45
2022-09-27T20:01:25.318Z,86.12
2022-09-27T20:03:56.902Z,86.92
2022-09-27T20:06:25.258Z,86.62
2022-09-27T20:08:53.296Z,86.88
2022-09-27T20:11:22.901Z,87.06
2022-09-27T20:13:52.951Z,88.05
2022-09-27T20:16:22.853Z,87.27
2022-09-27T20:18:52.607Z,87.47
2022-09-27T20:21:24.442Z,87.23
2022-09-27T20:23:54.158Z,87.65
2022-09-27T20:26:24.296Z,87.81
2022-09-27T20:28:53.999Z,87.86
2022-09-27T20:31:23.264Z,87.60
2022-09-27T20:33:51.657Z,86.95
2022-09-27T20:36:22.769Z,87.12
2022-09-27T20:38:52.804Z,86.98
2022-09-27T20:41:22.847Z,86.95
2022-09-27T20:43:54.685Z,86.71
2022-09-27T20:46:23.860Z,87.75
2022-09-27T20:48:53.828Z,87.63
2022-09-27T20:51:23.313Z,88.30
2022-09-27T20:53:51.989Z,87.56
2022-09-27T20:56:22.003Z,87.66
2022-09-27T20:58:51.023Z,87.33
2022-09-27T21:01:19.494Z,86.98
2022-09-27T21:03:48.056Z,87.18
2022-09-27T21:06:16.290Z,86.95
2022-09-27T21:08:45.557Z,86.88
2022-09-27T21:11:15.453Z,87.02
2022-09-27T21:13:44.775Z,86.95
2022-09-27T21:16:14.805Z,87.70
2022-09-27T21:18:43.061Z,87.51
2022-09-27T21:21:12.450Z,87.17
2022-09-27T21:23:44.583Z,87.36
2022-09-27T21:26:16.077Z,86.92
2022-09-27T21:28:45.814Z,87.16
2022-09-27T21:31:21.640Z,86.90
2022-09-27T21:33:53.570Z,86.57
2022-09-27T21:36:22.738Z,86.64
2022-09-27T21:38:50.871Z,86.53
2022-09-27T21:41:20.512Z,86.45
2022-09-27T21:43:49.820Z,86.47
2022-09-27T21:46:19.622Z,86.23
2022-09-27T21:48:49.841Z,86.59
2022-09-27T21:51:19.217Z,86.87
2022-09-27T21:53:51.408Z,86.08
2022-09-27T21:56:21.711Z,86.94
2022-09-27T21:58:49.997Z,87.52
2022-09-27T22:01:19.643Z,86.71
2022-09-27T22:03:48.256Z,87.50
2022-09-27T22:06:18.659Z,87.04
2022-09-27T22:08:47.479Z,86.62
2022-09-27T22:11:17.001Z,86.75
2022-09-27T22:13:46.366Z,86.81
2022-09-27T22:16:16.518Z,86.36
2022-09-27T22:18:45.320Z,86.78
2022-09-27T22:21:15.394Z,86.38
2022-09-27T22:23:45.564Z,86.73
2022-09-27T22:26:14.647Z,86.95
2022-09-27T22:28:42.671Z,87.50
2022-09-27T22:31:15.380Z,87.32
2022-09-27T22:33:44.002Z,88.04
2022-09-27T22:36:11.837Z,87.06
2022-09-27T22:38:40.405Z,86.69
2022-09-27T22:41:08.297Z,86.54
2022-09-27T22:43:36.163Z,86.28
2022-09-27T22:46:04.729Z,86.26
2022-09-27T22:48:34.277Z,87.53
2022-09-27T22:51:03.550Z,87.14
2022-09-27T22:53:32.470Z,86.99
2022-09-27T22:56:04.322Z,86.41
2022-09-27T22:58:34.439Z,86.53
2022-09-27T23:01:08.840Z,86.46
2022-09-27T23:03:38.368Z,85.94
2022-09-27T23:06:07.324Z,86.35
2022-09-27T23:08:36.377Z,85.82
2022-09-27T23:11:06.041Z,85.38
2022-09-27T23:13:34.937Z,85.13
2022-09-27T23:16:03.886Z,84.80
2022-09-27T23:18:32.815Z,85.10
2022-09-27T23:21:04.214Z,85.99
2022-09-27T23:23:32.896Z,86.29
2022-09-27T23:26:02.697Z,86.39
2022-09-27T23:28:31.618Z,85.19
2022-09-27T23:31:05.640Z,85.57
2022-09-27T23:33:34.080Z,86.35
2022-09-27T23:36:04.425Z,86.34
2022-09-27T23:38:32.600Z,85.97
2022-09-27T23:41:01.307Z,85.83
2022-09-27T23:43:29.402Z,85.29
2022-09-27T23:45:57.494Z,85.79
2022-09-27T23:48:26.147Z,85.34
2022-09-27T23:50:54.279Z,84.83
2022-09-27T23:53:24.169Z,84.18
2022-09-27T23:56:02.457Z,84.99
2022-09-27T23:58:33.704Z,85.38
